VOE3269 LEZL-LEXJ
Flight info
| Callsign | VOE3269 |
|---|---|
| Flight time | 1h 6m |
| Altitude | 34000 |
| Route | HIJ DCT PARKA DCT TLD DCT SIE DCT XERMA N865 ARLUN DCT BUGIX N865 UNGAS Y753 EMANU |
| Aircraft | A320/M-SDE3FGHIRWY/LB1 |
Departure
| Time | 2026-04-25 09:11 |
|---|---|
| Airport | Seville Airport (LEZL) |
Arrival
| Time | 2026-04-25 10:18 |
|---|---|
| Airport | Seve Ballesteros-Santander Airport (LEXJ) |
| Time | Latitude | Longitude | Altitude | Speed | Heading |
|---|---|---|---|---|---|
| 2026-04-25 08:44 | 37.42280 | -5.89885 | 94 ft | 0 kts | 314° |
| 2026-04-25 09:02 | 37.42273 | -5.89876 | 95 ft | 4 kts | 316° |
| 2026-04-25 09:03 | 37.42252 | -5.89855 | 93 ft | 4 kts | 327° |
| 2026-04-25 09:03 | 37.42229 | -5.89839 | 94 ft | 4 kts | 344° |
| 2026-04-25 09:03 | 37.42204 | -5.89837 | 93 ft | 4 kts | 27° |
| 2026-04-25 09:03 | 37.42197 | -5.89842 | 94 ft | 0 kts | 44° |
| 2026-04-25 09:05 | 37.42207 | -5.89830 | 93 ft | 6 kts | 45° |
| 2026-04-25 09:05 | 37.42253 | -5.89771 | 93 ft | 11 kts | 50° |
| 2026-04-25 09:06 | 37.42238 | -5.89684 | 94 ft | 12 kts | 135° |
| 2026-04-25 09:06 | 37.42165 | -5.89592 | 95 ft | 16 kts | 134° |
| 2026-04-25 09:06 | 37.42088 | -5.89491 | 98 ft | 16 kts | 134° |
| 2026-04-25 09:06 | 37.42007 | -5.89388 | 99 ft | 17 kts | 133° |
| 2026-04-25 09:07 | 37.41980 | -5.89249 | 100 ft | 17 kts | 90° |
| 2026-04-25 09:07 | 37.41981 | -5.89093 | 101 ft | 18 kts | 88° |
| 2026-04-25 09:07 | 37.41984 | -5.88934 | 102 ft | 18 kts | 89° |
| 2026-04-25 09:07 | 37.41986 | -5.88779 | 103 ft | 17 kts | 90° |
| 2026-04-25 09:08 | 37.41985 | -5.88628 | 104 ft | 17 kts | 90° |
| 2026-04-25 09:08 | 37.41985 | -5.88484 | 104 ft | 16 kts | 90° |
| 2026-04-25 09:08 | 37.41984 | -5.88335 | 105 ft | 18 kts | 90° |
| 2026-04-25 09:08 | 37.41986 | -5.88172 | 106 ft | 19 kts | 89° |
| 2026-04-25 09:09 | 37.41988 | -5.88000 | 107 ft | 20 kts | 90° |
| 2026-04-25 09:09 | 37.41988 | -5.87821 | 108 ft | 21 kts | 90° |
| 2026-04-25 09:09 | 37.41987 | -5.87633 | 109 ft | 22 kts | 90° |
| 2026-04-25 09:09 | 37.41966 | -5.87484 | 109 ft | 15 kts | 119° |
| 2026-04-25 09:10 | 37.41886 | -5.87423 | 115 ft | 13 kts | 175° |
| 2026-04-25 09:10 | 37.41821 | -5.87423 | 116 ft | 6 kts | 182° |
| 2026-04-25 09:10 | 37.41801 | -5.87439 | 114 ft | 2 kts | 248° |
| 2026-04-25 09:10 | 37.41801 | -5.87461 | 118 ft | 4 kts | 268° |
| 2026-04-25 09:11 | 37.41795 | -5.88623 | 105 ft | 131 kts | 269° |
| 2026-04-25 09:11 | 37.41786 | -5.89974 | 235 ft | 165 kts | 267° |
| 2026-04-25 09:11 | 37.41778 | -5.91364 | 937 ft | 160 kts | 269° |
| 2026-04-25 09:12 | 37.41931 | -5.92758 | 1482 ft | 166 kts | 301° |
| 2026-04-25 09:12 | 37.42753 | -5.93801 | 1981 ft | 176 kts | 322° |
| 2026-04-25 09:12 | 37.43753 | -5.94829 | 2424 ft | 194 kts | 321° |
| 2026-04-25 09:12 | 37.44801 | -5.96002 | 2879 ft | 216 kts | 319° |
| 2026-04-25 09:13 | 37.45977 | -5.97361 | 3308 ft | 241 kts | 320° |
| 2026-04-25 09:13 | 37.47272 | -5.98842 | 3822 ft | 259 kts | 320° |
| 2026-04-25 09:13 | 37.48178 | -5.99883 | 4384 ft | 263 kts | 320° |
| 2026-04-25 09:13 | 37.49523 | -6.01440 | 5283 ft | 266 kts | 320° |
| 2026-04-25 09:14 | 37.51350 | -6.03575 | 5885 ft | 271 kts | 320° |
| 2026-04-25 09:14 | 37.52285 | -6.04674 | 5961 ft | 272 kts | 320° |
| 2026-04-25 09:14 | 37.53655 | -6.06289 | 6146 ft | 276 kts | 320° |
| 2026-04-25 09:14 | 37.55062 | -6.07948 | 7032 ft | 276 kts | 320° |
| 2026-04-25 09:15 | 37.56501 | -6.09595 | 7874 ft | 278 kts | 327° |
| 2026-04-25 09:15 | 37.58196 | -6.10650 | 8669 ft | 275 kts | 349° |
| 2026-04-25 09:15 | 37.60087 | -6.10797 | 9495 ft | 272 kts | 11° |
| 2026-04-25 09:15 | 37.61871 | -6.10039 | 10301 ft | 272 kts | 29° |
| 2026-04-25 09:16 | 37.63610 | -6.08885 | 10612 ft | 294 kts | 29° |
| 2026-04-25 09:16 | 37.65485 | -6.07622 | 10882 ft | 314 kts | 29° |
| 2026-04-25 09:16 | 37.67417 | -6.06319 | 11474 ft | 322 kts | 29° |
| 2026-04-25 09:16 | 37.69405 | -6.04977 | 12187 ft | 326 kts | 28° |
| 2026-04-25 09:17 | 37.73462 | -6.02240 | 13630 ft | 333 kts | 28° |
| 2026-04-25 09:17 | 37.75524 | -6.00847 | 14289 ft | 337 kts | 28° |
| 2026-04-25 09:17 | 37.77598 | -5.99445 | 14909 ft | 340 kts | 28° |
| 2026-04-25 09:18 | 37.79672 | -5.98040 | 15536 ft | 344 kts | 28° |
| 2026-04-25 09:18 | 37.81795 | -5.96601 | 16156 ft | 347 kts | 28° |
| 2026-04-25 09:18 | 37.83943 | -5.95146 | 16790 ft | 351 kts | 28° |
| 2026-04-25 09:18 | 37.86112 | -5.93677 | 17413 ft | 354 kts | 28° |
| 2026-04-25 09:19 | 37.88270 | -5.92212 | 17999 ft | 358 kts | 28° |
| 2026-04-25 09:19 | 37.90478 | -5.90713 | 18564 ft | 361 kts | 28° |
| 2026-04-25 09:19 | 37.92708 | -5.89193 | 19100 ft | 364 kts | 28° |
| 2026-04-25 09:19 | 37.94955 | -5.87663 | 19630 ft | 367 kts | 28° |
| 2026-04-25 09:20 | 37.97188 | -5.86143 | 20186 ft | 369 kts | 28° |
| 2026-04-25 09:20 | 37.99466 | -5.84589 | 20725 ft | 372 kts | 28° |
| 2026-04-25 09:20 | 38.01756 | -5.83026 | 21272 ft | 375 kts | 28° |
| 2026-04-25 09:20 | 38.04071 | -5.81447 | 21814 ft | 378 kts | 28° |
| 2026-04-25 09:21 | 38.06371 | -5.79878 | 22318 ft | 380 kts | 28° |
| 2026-04-25 09:21 | 38.08712 | -5.78278 | 22834 ft | 383 kts | 28° |
| 2026-04-25 09:21 | 38.11072 | -5.76665 | 23344 ft | 386 kts | 28° |
| 2026-04-25 09:21 | 38.13451 | -5.75039 | 23809 ft | 389 kts | 28° |
| 2026-04-25 09:22 | 38.15814 | -5.73421 | 24201 ft | 391 kts | 28° |
| 2026-04-25 09:22 | 38.18227 | -5.71766 | 24597 ft | 394 kts | 28° |
| 2026-04-25 09:22 | 38.20626 | -5.70123 | 24953 ft | 398 kts | 29° |
| 2026-04-25 09:22 | 38.23086 | -5.68438 | 25253 ft | 403 kts | 29° |
| 2026-04-25 09:23 | 38.25567 | -5.66741 | 25597 ft | 406 kts | 29° |
| 2026-04-25 09:23 | 38.28062 | -5.65032 | 25956 ft | 408 kts | 29° |
| 2026-04-25 09:23 | 38.30583 | -5.63302 | 26306 ft | 411 kts | 29° |
| 2026-04-25 09:23 | 38.33076 | -5.61588 | 26648 ft | 413 kts | 29° |
| 2026-04-25 09:24 | 38.35621 | -5.59834 | 26998 ft | 416 kts | 30° |
| 2026-04-25 09:24 | 38.38186 | -5.58062 | 27341 ft | 418 kts | 30° |
| 2026-04-25 09:24 | 38.40753 | -5.56287 | 27672 ft | 421 kts | 30° |
| 2026-04-25 09:24 | 38.43303 | -5.54521 | 28001 ft | 423 kts | 30° |
| 2026-04-25 09:25 | 38.45910 | -5.52715 | 28320 ft | 425 kts | 30° |
| 2026-04-25 09:25 | 38.48523 | -5.50905 | 28639 ft | 428 kts | 30° |
| 2026-04-25 09:25 | 38.51152 | -5.49085 | 28943 ft | 430 kts | 30° |
| 2026-04-25 09:25 | 38.53770 | -5.47275 | 29220 ft | 433 kts | 30° |
| 2026-04-25 09:26 | 38.56429 | -5.45434 | 29485 ft | 436 kts | 30° |
| 2026-04-25 09:26 | 38.59101 | -5.43579 | 29762 ft | 438 kts | 30° |
| 2026-04-25 09:26 | 38.61794 | -5.41706 | 30042 ft | 440 kts | 30° |
| 2026-04-25 09:26 | 38.64497 | -5.39825 | 30285 ft | 442 kts | 30° |
| 2026-04-25 09:27 | 38.67184 | -5.37955 | 30513 ft | 444 kts | 30° |
| 2026-04-25 09:27 | 38.69912 | -5.36056 | 30745 ft | 445 kts | 30° |
| 2026-04-25 09:27 | 38.72652 | -5.34144 | 30971 ft | 447 kts | 30° |
| 2026-04-25 09:27 | 38.75386 | -5.32235 | 31181 ft | 448 kts | 31° |
| 2026-04-25 09:28 | 38.78102 | -5.30338 | 31407 ft | 449 kts | 31° |
| 2026-04-25 09:28 | 38.80851 | -5.28420 | 31665 ft | 449 kts | 31° |
| 2026-04-25 09:28 | 38.83604 | -5.26504 | 31949 ft | 449 kts | 31° |
| 2026-04-25 09:28 | 38.86346 | -5.24588 | 32247 ft | 448 kts | 31° |
| 2026-04-25 09:29 | 38.89091 | -5.22666 | 32555 ft | 448 kts | 31° |
| 2026-04-25 09:29 | 38.91827 | -5.20747 | 32839 ft | 447 kts | 31° |
| 2026-04-25 09:29 | 38.94523 | -5.18855 | 33130 ft | 447 kts | 31° |
| 2026-04-25 09:29 | 38.97250 | -5.16936 | 33428 ft | 446 kts | 31° |
| 2026-04-25 09:30 | 38.99972 | -5.15014 | 33729 ft | 445 kts | 32° |
| 2026-04-25 09:30 | 39.02650 | -5.13000 | 33988 ft | 445 kts | 34° |
| 2026-04-25 09:30 | 39.05273 | -5.10880 | 34082 ft | 441 kts | 36° |
| 2026-04-25 09:31 | 39.10327 | -5.06567 | 34089 ft | 436 kts | 37° |
| 2026-04-25 09:31 | 39.15393 | -5.02249 | 34086 ft | 436 kts | 36° |
| 2026-04-25 09:32 | 39.20505 | -4.98003 | 34086 ft | 436 kts | 35° |
| 2026-04-25 09:32 | 39.25607 | -4.93800 | 34080 ft | 439 kts | 36° |
| 2026-04-25 09:33 | 39.30779 | -4.89508 | 34080 ft | 441 kts | 36° |
| 2026-04-25 09:33 | 39.35920 | -4.85221 | 34075 ft | 442 kts | 36° |
| 2026-04-25 09:34 | 39.41087 | -4.80897 | 34082 ft | 442 kts | 36° |
| 2026-04-25 09:34 | 39.46269 | -4.76559 | 34081 ft | 443 kts | 36° |
| 2026-04-25 09:35 | 39.51406 | -4.72246 | 34082 ft | 443 kts | 36° |
| 2026-04-25 09:35 | 39.56585 | -4.67899 | 34086 ft | 443 kts | 36° |
| 2026-04-25 09:36 | 39.61767 | -4.63553 | 34092 ft | 442 kts | 36° |
| 2026-04-25 09:36 | 39.66907 | -4.59224 | 34092 ft | 442 kts | 36° |
| 2026-04-25 09:37 | 39.72064 | -4.54868 | 34088 ft | 443 kts | 36° |
| 2026-04-25 09:37 | 39.77235 | -4.50488 | 34088 ft | 443 kts | 36° |
| 2026-04-25 09:38 | 39.82403 | -4.46108 | 34086 ft | 443 kts | 36° |
| 2026-04-25 09:38 | 39.87541 | -4.41750 | 34092 ft | 444 kts | 36° |
| 2026-04-25 09:39 | 39.92729 | -4.37338 | 34096 ft | 444 kts | 36° |
| 2026-04-25 09:39 | 39.97975 | -4.33116 | 34091 ft | 446 kts | 28° |
| 2026-04-25 09:40 | 40.06442 | -4.27955 | 34093 ft | 447 kts | 27° |
| 2026-04-25 09:40 | 40.12069 | -4.24531 | 34100 ft | 448 kts | 27° |
| 2026-04-25 09:41 | 40.17721 | -4.21085 | 34105 ft | 448 kts | 27° |
| 2026-04-25 09:41 | 40.23356 | -4.17632 | 34099 ft | 449 kts | 27° |
| 2026-04-25 09:42 | 40.29014 | -4.14147 | 34104 ft | 449 kts | 27° |
| 2026-04-25 09:42 | 40.34680 | -4.10665 | 34107 ft | 449 kts | 27° |
| 2026-04-25 09:43 | 40.40312 | -4.07201 | 34105 ft | 449 kts | 27° |
| 2026-04-25 09:43 | 40.45994 | -4.03688 | 34104 ft | 450 kts | 27° |
| 2026-04-25 09:44 | 40.51651 | -4.00191 | 34114 ft | 451 kts | 27° |
| 2026-04-25 09:44 | 40.57355 | -3.96668 | 34126 ft | 452 kts | 27° |
| 2026-04-25 09:45 | 40.63020 | -3.93160 | 34138 ft | 452 kts | 27° |
| 2026-04-25 09:45 | 40.68727 | -3.89607 | 34146 ft | 453 kts | 27° |
| 2026-04-25 09:46 | 40.74438 | -3.86042 | 34151 ft | 453 kts | 27° |
| 2026-04-25 09:46 | 40.80122 | -3.82496 | 34115 ft | 453 kts | 27° |
| 2026-04-25 09:47 | 40.85805 | -3.78946 | 34110 ft | 454 kts | 27° |
| 2026-04-25 09:47 | 40.91546 | -3.75349 | 34107 ft | 455 kts | 27° |
| 2026-04-25 09:48 | 40.97253 | -3.71766 | 34110 ft | 456 kts | 27° |
| 2026-04-25 09:48 | 41.03010 | -3.68139 | 34113 ft | 457 kts | 27° |
| 2026-04-25 09:49 | 41.08733 | -3.64533 | 34112 ft | 457 kts | 26° |
| 2026-04-25 09:49 | 41.14648 | -3.61407 | 34109 ft | 458 kts | 14° |
| 2026-04-25 09:50 | 41.20979 | -3.60610 | 34108 ft | 458 kts | 358° |
| 2026-04-25 09:50 | 41.27326 | -3.60795 | 34107 ft | 459 kts | 358° |
| 2026-04-25 09:51 | 41.33722 | -3.60945 | 34110 ft | 458 kts | 358° |
| 2026-04-25 09:51 | 41.40075 | -3.61093 | 34118 ft | 458 kts | 358° |
| 2026-04-25 09:52 | 41.46451 | -3.61252 | 34129 ft | 457 kts | 358° |
| 2026-04-25 09:52 | 41.52831 | -3.61398 | 34134 ft | 457 kts | 358° |
| 2026-04-25 09:53 | 41.59170 | -3.61424 | 34135 ft | 457 kts | 359° |
| 2026-04-25 09:53 | 41.65544 | -3.61386 | 34135 ft | 457 kts | 359° |
| 2026-04-25 09:54 | 41.71878 | -3.61357 | 34136 ft | 456 kts | 359° |
| 2026-04-25 09:54 | 41.78246 | -3.61352 | 34137 ft | 456 kts | 359° |
| 2026-04-25 09:55 | 41.81397 | -3.61354 | 33915 ft | 457 kts | 359° |
| 2026-04-25 09:55 | 41.84585 | -3.61352 | 33641 ft | 457 kts | 359° |
| 2026-04-25 09:55 | 41.87774 | -3.61350 | 33369 ft | 457 kts | 359° |
| 2026-04-25 09:55 | 41.90959 | -3.61349 | 33107 ft | 456 kts | 359° |
| 2026-04-25 09:56 | 41.94132 | -3.61350 | 32842 ft | 454 kts | 359° |
| 2026-04-25 09:56 | 41.97257 | -3.61350 | 32581 ft | 453 kts | 359° |
| 2026-04-25 09:56 | 42.00411 | -3.61349 | 32322 ft | 451 kts | 359° |
| 2026-04-25 09:56 | 42.03544 | -3.61367 | 31973 ft | 447 kts | 358° |
| 2026-04-25 09:57 | 42.06651 | -3.61486 | 31408 ft | 444 kts | 356° |
| 2026-04-25 09:57 | 42.09693 | -3.61687 | 30869 ft | 441 kts | 356° |
| 2026-04-25 09:57 | 42.12746 | -3.61933 | 30329 ft | 438 kts | 355° |
| 2026-04-25 09:57 | 42.15785 | -3.62186 | 29750 ft | 435 kts | 355° |
| 2026-04-25 09:58 | 42.18801 | -3.62425 | 29270 ft | 431 kts | 356° |
| 2026-04-25 09:58 | 42.21794 | -3.62643 | 28750 ft | 427 kts | 356° |
| 2026-04-25 09:58 | 42.24729 | -3.62840 | 28244 ft | 423 kts | 356° |
| 2026-04-25 09:58 | 42.27666 | -3.63029 | 27741 ft | 419 kts | 356° |
| 2026-04-25 09:59 | 42.30576 | -3.63209 | 27246 ft | 416 kts | 356° |
| 2026-04-25 09:59 | 42.33421 | -3.63383 | 26771 ft | 412 kts | 356° |
| 2026-04-25 09:59 | 42.36272 | -3.63625 | 26294 ft | 408 kts | 351° |
| 2026-04-25 09:59 | 42.39080 | -3.64172 | 25831 ft | 405 kts | 350° |
| 2026-04-25 10:00 | 42.41858 | -3.64721 | 25368 ft | 402 kts | 349° |
| 2026-04-25 10:00 | 42.44617 | -3.65266 | 24912 ft | 399 kts | 349° |
| 2026-04-25 10:00 | 42.47367 | -3.65813 | 24455 ft | 397 kts | 350° |
| 2026-04-25 10:00 | 42.50067 | -3.66353 | 23963 ft | 395 kts | 349° |
| 2026-04-25 10:01 | 42.52799 | -3.66900 | 23368 ft | 395 kts | 349° |
| 2026-04-25 10:01 | 42.55504 | -3.67440 | 22979 ft | 389 kts | 349° |
| 2026-04-25 10:01 | 42.58145 | -3.67967 | 22512 ft | 386 kts | 349° |
| 2026-04-25 10:01 | 42.60798 | -3.68495 | 22034 ft | 383 kts | 350° |
| 2026-04-25 10:02 | 42.63437 | -3.69022 | 21564 ft | 381 kts | 351° |
| 2026-04-25 10:02 | 42.65168 | -3.69369 | 21247 ft | 379 kts | 350° |
| 2026-04-25 10:02 | 42.67777 | -3.69891 | 20766 ft | 377 kts | 350° |
| 2026-04-25 10:02 | 42.71203 | -3.70707 | 20131 ft | 375 kts | 347° |
| 2026-04-25 10:03 | 42.72898 | -3.71190 | 19828 ft | 374 kts | 346° |
| 2026-04-25 10:03 | 42.75444 | -3.71966 | 19342 ft | 373 kts | 346° |
| 2026-04-25 10:03 | 42.77978 | -3.72760 | 18871 ft | 371 kts | 345° |
| 2026-04-25 10:03 | 42.80462 | -3.73536 | 18409 ft | 370 kts | 346° |
| 2026-04-25 10:04 | 42.82973 | -3.74304 | 17901 ft | 368 kts | 346° |
| 2026-04-25 10:04 | 42.85463 | -3.75051 | 17449 ft | 365 kts | 347° |
| 2026-04-25 10:04 | 42.87945 | -3.75783 | 16998 ft | 362 kts | 347° |
| 2026-04-25 10:04 | 42.90404 | -3.76503 | 16546 ft | 360 kts | 347° |
| 2026-04-25 10:05 | 42.92849 | -3.77216 | 16107 ft | 357 kts | 347° |
| 2026-04-25 10:05 | 42.95250 | -3.77918 | 15674 ft | 356 kts | 347° |
| 2026-04-25 10:05 | 42.97681 | -3.78602 | 15184 ft | 356 kts | 348° |
| 2026-04-25 10:05 | 43.00141 | -3.79086 | 14672 ft | 357 kts | 359° |
| 2026-04-25 10:06 | 43.02587 | -3.78566 | 14167 ft | 357 kts | 19° |
| 2026-04-25 10:06 | 43.04766 | -3.76968 | 13686 ft | 355 kts | 39° |
| 2026-04-25 10:06 | 43.06416 | -3.74551 | 13171 ft | 353 kts | 57° |
| 2026-04-25 10:06 | 43.07449 | -3.71512 | 12729 ft | 349 kts | 70° |
| 2026-04-25 10:07 | 43.08349 | -3.68416 | 12233 ft | 347 kts | 67° |
| 2026-04-25 10:07 | 43.09348 | -3.65460 | 11747 ft | 346 kts | 63° |
| 2026-04-25 10:07 | 43.10481 | -3.62576 | 11278 ft | 343 kts | 60° |
| 2026-04-25 10:07 | 43.11740 | -3.59802 | 10808 ft | 341 kts | 56° |
| 2026-04-25 10:08 | 43.13116 | -3.57165 | 10407 ft | 337 kts | 52° |
| 2026-04-25 10:08 | 43.14560 | -3.54703 | 10161 ft | 325 kts | 50° |
| 2026-04-25 10:08 | 43.16011 | -3.52466 | 9751 ft | 310 kts | 46° |
| 2026-04-25 10:08 | 43.17501 | -3.50405 | 9321 ft | 296 kts | 43° |
| 2026-04-25 10:09 | 43.19008 | -3.48559 | 8882 ft | 284 kts | 39° |
| 2026-04-25 10:09 | 43.20520 | -3.46893 | 8455 ft | 274 kts | 37° |
| 2026-04-25 10:09 | 43.22013 | -3.45390 | 8036 ft | 264 kts | 34° |
| 2026-04-25 10:09 | 43.23504 | -3.44013 | 7681 ft | 252 kts | 31° |
| 2026-04-25 10:10 | 43.24979 | -3.42772 | 7347 ft | 248 kts | 29° |
| 2026-04-25 10:10 | 43.26493 | -3.41626 | 6985 ft | 248 kts | 26° |
| 2026-04-25 10:10 | 43.28023 | -3.40599 | 6592 ft | 247 kts | 20° |
| 2026-04-25 10:10 | 43.29706 | -3.40287 | 6137 ft | 245 kts | 349° |
| 2026-04-25 10:11 | 43.31218 | -3.41202 | 5944 ft | 235 kts | 320° |
| 2026-04-25 10:11 | 43.32182 | -3.42965 | 5690 ft | 232 kts | 294° |
| 2026-04-25 10:11 | 43.32749 | -3.45027 | 5402 ft | 229 kts | 292° |
| 2026-04-25 10:11 | 43.33298 | -3.47080 | 5104 ft | 227 kts | 291° |
| 2026-04-25 10:12 | 43.33837 | -3.49075 | 4810 ft | 218 kts | 292° |
| 2026-04-25 10:12 | 43.34351 | -3.50971 | 4528 ft | 209 kts | 291° |
| 2026-04-25 10:12 | 43.35327 | -3.54573 | 3976 ft | 194 kts | 290° |
| 2026-04-25 10:13 | 43.35783 | -3.56259 | 3732 ft | 184 kts | 291° |
| 2026-04-25 10:13 | 43.36224 | -3.57891 | 3493 ft | 180 kts | 290° |
| 2026-04-25 10:13 | 43.36649 | -3.59463 | 3257 ft | 174 kts | 290° |
| 2026-04-25 10:13 | 43.37064 | -3.61001 | 3026 ft | 169 kts | 291° |
| 2026-04-25 10:14 | 43.37465 | -3.62486 | 2807 ft | 162 kts | 290° |
| 2026-04-25 10:14 | 43.37850 | -3.63911 | 2594 ft | 156 kts | 290° |
| 2026-04-25 10:14 | 43.38215 | -3.65267 | 2410 ft | 145 kts | 289° |
| 2026-04-25 10:14 | 43.38552 | -3.66515 | 2200 ft | 138 kts | 289° |
| 2026-04-25 10:15 | 43.38885 | -3.67753 | 2034 ft | 136 kts | 289° |
| 2026-04-25 10:15 | 43.39216 | -3.68967 | 1853 ft | 136 kts | 289° |
| 2026-04-25 10:15 | 43.39539 | -3.70172 | 1645 ft | 135 kts | 289° |
| 2026-04-25 10:15 | 43.39861 | -3.71386 | 1494 ft | 136 kts | 289° |
| 2026-04-25 10:16 | 43.40185 | -3.72602 | 1298 ft | 135 kts | 289° |
| 2026-04-25 10:16 | 43.40498 | -3.73816 | 1086 ft | 135 kts | 289° |
| 2026-04-25 10:16 | 43.40828 | -3.75006 | 907 ft | 132 kts | 290° |
| 2026-04-25 10:16 | 43.41148 | -3.76172 | 782 ft | 131 kts | 288° |
| 2026-04-25 10:17 | 43.41459 | -3.77357 | 575 ft | 133 kts | 289° |
| 2026-04-25 10:17 | 43.41775 | -3.78541 | 391 ft | 132 kts | 290° |
| 2026-04-25 10:17 | 43.42091 | -3.79726 | 229 ft | 131 kts | 290° |
| 2026-04-25 10:17 | 43.42408 | -3.80891 | 41 ft | 129 kts | 290° |
| 2026-04-25 10:18 | 43.42679 | -3.81902 | 19 ft | 83 kts | 290° |
| 2026-04-25 10:18 | 43.42815 | -3.82409 | 19 ft | 46 kts | 290° |
| 2026-04-25 10:18 | 43.42905 | -3.82750 | 20 ft | 32 kts | 289° |
| 2026-04-25 10:18 | 43.42936 | -3.82949 | 19 ft | 18 kts | 252° |
| 2026-04-25 10:19 | 43.42841 | -3.83035 | 19 ft | 18 kts | 165° |
| 2026-04-25 10:19 | 43.42778 | -3.82903 | 19 ft | 17 kts | 110° |
| 2026-04-25 10:19 | 43.42740 | -3.82760 | 19 ft | 15 kts | 110° |
| 2026-04-25 10:19 | 43.42706 | -3.82630 | 19 ft | 14 kts | 109° |
| 2026-04-25 10:20 | 43.42675 | -3.82509 | 20 ft | 13 kts | 109° |
| 2026-04-25 10:20 | 43.42646 | -3.82398 | 21 ft | 12 kts | 111° |
| 2026-04-25 10:20 | 43.42608 | -3.82307 | 19 ft | 10 kts | 146° |
| 2026-04-25 10:20 | 43.42543 | -3.82317 | 19 ft | 9 kts | 202° |
| 2026-04-25 10:21 | 43.42491 | -3.82346 | 19 ft | 8 kts | 200° |
| 2026-04-25 10:21 | 43.42444 | -3.82352 | 19 ft | 6 kts | 160° |
| 2026-04-25 10:21 | 43.42415 | -3.82339 | 19 ft | 3 kts | 178° |
| 2026-04-25 10:21 | 43.42406 | -3.82351 | 19 ft | 1 kts | 224° |
| 2026-04-25 10:22 | 43.42402 | -3.82360 | 20 ft | 1 kts | 237° |
| 2026-04-25 10:22 | 43.42399 | -3.82366 | 20 ft | 1 kts | 237° |
| 2026-04-25 10:22 | 43.42398 | -3.82368 | 19 ft | 0 kts | 237° |